Time;durP1;ratioP1;P1;durP2;ratioP2;P2;SDS_P1;SDS_P2;PMS_P1;PMS_P2;Temp;Humidity;BMP_temperature;BMP_pressure;BME280_temperature;BME280_humidity;BME280_pressure;Samples;Min_cycle;Max_cycle;Signal;HPM_P1;HPM_P2
2023/12/20 00:01:04;;;;;;;1.20;1.10;;;;;;;;;;4925827;29;20040;-78
2023/12/20 00:03:30;;;;;;;1.17;0.85;;;;;;;;;;4924876;29;20044;-77
2023/12/20 00:05:56;;;;;;;1.80;1.10;;;;;;;;;;4940920;29;20407;-78
2023/12/20 00:08:23;;;;;;;3.15;1.08;;;;;;;;;;4923307;29;20044;-79
2023/12/20 00:10:49;;;;;;;1.60;0.70;;;;;;;;;;4926572;29;20411;-78
2023/12/20 00:13:15;;;;;;;1.15;0.90;;;;;;;;;;4943554;29;20042;-78
2023/12/20 00:15:44;;;;;;;1.10;0.80;;;;;;;;;;4910236;29;20399;-77
2023/12/20 00:18:11;;;;;;;1.20;0.80;;;;;;;;;;4913822;29;20051;-77
2023/12/20 00:20:38;;;;;;;1.23;0.90;;;;;;;;;;4943975;29;20035;-78
2023/12/20 00:23:04;;;;;;;1.30;1.13;;;;;;;;;;4928278;29;20380;-78
2023/12/20 00:25:30;;;;;;;0.95;0.73;;;;;;;;;;4925001;29;20043;-77
2023/12/20 00:27:56;;;;;;;1.77;0.80;;;;;;;;;;4941496;29;20035;-77
2023/12/20 00:30:26;;;;;;;1.13;0.90;;;;;;;;;;4926340;29;20438;-79
2023/12/20 00:32:53;;;;;;;0.57;0.57;;;;;;;;;;4927904;29;20039;-78
2023/12/20 00:35:19;;;;;;;1.48;0.80;;;;;;;;;;4943259;29;20035;-77
2023/12/20 00:37:45;;;;;;;0.40;0.40;;;;;;;;;;4944327;29;20036;-78
2023/12/20 00:40:12;;;;;;;0.60;0.60;;;;;;;;;;4943624;29;20043;-78
2023/12/20 00:42:39;;;;;;;1.75;0.80;;;;;;;;;;4943097;29;20047;-77
2023/12/20 00:45:06;;;;;;;0.95;0.70;;;;;;;;;;4943467;29;20035;-78
2023/12/20 00:47:32;;;;;;;0.98;0.88;;;;;;;;;;4945103;29;20513;-76
2023/12/20 00:49:58;;;;;;;0.90;0.77;;;;;;;;;;4945157;29;20040;-77
2023/12/20 00:52:25;;;;;;;0.80;0.80;;;;;;;;;;4927489;29;20044;-77
2023/12/20 00:54:52;;;;;;;1.23;0.80;;;;;;;;;;4919108;29;20051;-78
2023/12/20 00:57:18;;;;;;;0.70;0.65;;;;;;;;;;4928059;29;20044;-78
2023/12/20 00:59:44;;;;;;;0.60;0.57;;;;;;;;;;4944216;29;20059;-77
2023/12/20 01:02:17;;;;;;;0.60;0.57;;;;;;;;;;4928721;29;20046;-78
2023/12/20 01:04:43;;;;;;;0.47;0.47;;;;;;;;;;4928457;29;20035;-78
2023/12/20 01:07:09;;;;;;;0.75;0.70;;;;;;;;;;4943853;29;20042;-77
2023/12/20 01:09:36;;;;;;;0.93;0.60;;;;;;;;;;4941708;29;20040;-77
2023/12/20 01:12:02;;;;;;;1.20;0.70;;;;;;;;;;4937995;29;20043;-77
2023/12/20 01:14:32;;;;;;;0.75;0.65;;;;;;;;;;4937196;29;20047;-77
2023/12/20 01:16:59;;;;;;;0.50;0.50;;;;;;;;;;4938215;29;20402;-77
2023/12/20 01:19:30;;;;;;;0.77;0.50;;;;;;;;;;4904697;29;20040;-77
2023/12/20 01:21:57;;;;;;;0.77;0.60;;;;;;;;;;4920414;29;20043;-77
2023/12/20 01:24:23;;;;;;;0.50;0.50;;;;;;;;;;4925140;29;20042;-78
2023/12/20 01:26:49;;;;;;;0.47;0.40;;;;;;;;;;4939520;29;20027;-77
2023/12/20 01:29:16;;;;;;;0.82;0.70;;;;;;;;;;4939435;29;20314;-77
2023/12/20 01:31:42;;;;;;;0.82;0.50;;;;;;;;;;4908229;29;20055;-77
2023/12/20 01:34:08;;;;;;;1.15;0.70;;;;;;;;;;4921327;29;20043;-77
2023/12/20 01:36:34;;;;;;;0.65;0.60;;;;;;;;;;4936791;29;20403;-77
2023/12/20 01:39:00;;;;;;;0.82;0.73;;;;;;;;;;4942709;29;20051;-77
2023/12/20 01:41:26;;;;;;;1.48;1.10;;;;;;;;;;4941482;29;20055;-78
2023/12/20 01:44:01;;;;;;;0.95;0.80;;;;;;;;;;4937984;29;20537;-78
2023/12/20 01:46:28;;;;;;;0.73;0.70;;;;;;;;;;4903881;29;20391;-78
2023/12/20 01:48:54;;;;;;;1.25;0.70;;;;;;;;;;4917911;29;20272;-79
2023/12/20 01:51:21;;;;;;;1.75;0.90;;;;;;;;;;4928844;29;20043;-78
2023/12/20 01:53:48;;;;;;;1.40;0.80;;;;;;;;;;4930406;29;20039;-79
2023/12/20 01:56:19;;;;;;;1.00;0.90;;;;;;;;;;4913299;29;20040;-78
2023/12/20 01:58:47;;;;;;;0.90;0.80;;;;;;;;;;4928230;29;20050;-79
2023/12/20 02:01:13;;;;;;;1.15;0.80;;;;;;;;;;4929871;29;20040;-80
2023/12/20 02:03:43;;;;;;;0.75;0.75;;;;;;;;;;4945928;29;20051;-79
2023/12/20 02:06:09;;;;;;;1.70;1.05;;;;;;;;;;4926412;29;20045;-79
2023/12/20 02:08:36;;;;;;;0.82;0.75;;;;;;;;;;4928353;29;20058;-79
2023/12/20 02:11:03;;;;;;;2.22;1.20;;;;;;;;;;4930539;29;20047;-80
2023/12/20 02:13:31;;;;;;;2.22;0.88;;;;;;;;;;4900824;29;20047;-79
2023/12/20 02:15:57;;;;;;;1.45;0.90;;;;;;;;;;4945348;29;20046;-79
2023/12/20 02:18:24;;;;;;;2.17;1.20;;;;;;;;;;4930199;29;20052;-79
2023/12/20 02:20:51;;;;;;;1.20;0.90;;;;;;;;;;4942812;29;20059;-79
2023/12/20 02:23:17;;;;;;;1.92;1.20;;;;;;;;;;4923616;29;20048;-78
2023/12/20 02:25:43;;;;;;;1.10;1.00;;;;;;;;;;4911005;29;20035;-79
2023/12/20 02:28:09;;;;;;;1.25;1.05;;;;;;;;;;4926135;29;20046;-78
2023/12/20 02:30:35;;;;;;;1.98;1.23;;;;;;;;;;4907602;29;20050;-77
2023/12/20 02:33:07;;;;;;;2.00;1.10;;;;;;;;;;4922616;29;20050;-79
2023/12/20 02:35:37;;;;;;;1.52;1.25;;;;;;;;;;4939227;29;20047;-78
2023/12/20 02:38:03;;;;;;;1.83;1.20;;;;;;;;;;4925586;29;20044;-79
2023/12/20 02:40:29;;;;;;;1.98;1.00;;;;;;;;;;4936858;29;20043;-79
2023/12/20 02:42:55;;;;;;;1.58;1.00;;;;;;;;;;4927134;29;20044;-78
2023/12/20 02:45:21;;;;;;;1.95;1.17;;;;;;;;;;4910536;29;20511;-78
2023/12/20 02:47:47;;;;;;;1.20;1.10;;;;;;;;;;4941475;29;20031;-78
2023/12/20 02:50:14;;;;;;;1.38;1.15;;;;;;;;;;4939924;29;20046;-77
2023/12/20 02:52:40;;;;;;;1.25;1.10;;;;;;;;;;4937242;29;20042;-78
2023/12/20 02:55:06;;;;;;;2.67;1.30;;;;;;;;;;4938552;29;20036;-77
2023/12/20 02:57:33;;;;;;;0.98;0.85;;;;;;;;;;4939444;29;20055;-77
2023/12/20 03:00:00;;;;;;;1.23;0.95;;;;;;;;;;4905930;29;20063;-78
2023/12/20 03:02:26;;;;;;;2.90;1.48;;;;;;;;;;4921829;29;20051;-77
2023/12/20 03:05:00;;;;;;;3.53;1.20;;;;;;;;;;4904607;29;20040;-77
2023/12/20 03:07:26;;;;;;;0.73;0.73;;;;;;;;;;4915762;29;20406;-77
2023/12/20 03:09:52;;;;;;;1.10;1.00;;;;;;;;;;4929934;29;20430;-77
2023/12/20 03:12:19;;;;;;;1.10;1.00;;;;;;;;;;4937331;29;20426;-77
2023/12/20 03:14:46;;;;;;;1.30;1.20;;;;;;;;;;4924341;29;20043;-78
2023/12/20 03:17:12;;;;;;;1.30;1.20;;;;;;;;;;4942941;29;20399;-78
2023/12/20 03:19:38;;;;;;;1.10;0.90;;;;;;;;;;4923249;29;20044;-78
2023/12/20 03:22:05;;;;;;;1.15;1.05;;;;;;;;;;4943940;29;20047;-78
2023/12/20 03:24:31;;;;;;;1.70;1.20;;;;;;;;;;4925537;29;20043;-78
2023/12/20 03:26:57;;;;;;;1.67;1.10;;;;;;;;;;4942559;29;20032;-79
2023/12/20 03:29:23;;;;;;;1.30;1.00;;;;;;;;;;4925256;29;20048;-78
2023/12/20 03:31:50;;;;;;;2.35;1.23;;;;;;;;;;4911108;29;20043;-78
2023/12/20 03:34:16;;;;;;;2.75;1.50;;;;;;;;;;4927161;29;20660;-78
2023/12/20 03:36:43;;;;;;;1.85;1.23;;;;;;;;;;4945010;29;20126;-79
2023/12/20 03:39:12;;;;;;;1.25;1.13;;;;;;;;;;4947035;29;20039;-78
2023/12/20 03:41:38;;;;;;;;;;;;;;;;;;4916412;29;20039;-78
2023/12/20 03:44:05;;;;;;;1.92;1.30;;;;;;;;;;4915638;29;19921;-77
2023/12/20 03:46:31;;;;;;;1.85;1.40;;;;;;;;;;4930988;29;20371;-78
2023/12/20 03:49:04;;;;;;;3.25;1.83;;;;;;;;;;4946089;29;20065;-78
2023/12/20 03:51:31;;;;;;;2.30;1.50;;;;;;;;;;4929001;29;20058;-78
2023/12/20 03:53:57;;;;;;;2.33;1.25;;;;;;;;;;4946245;29;20042;-78
2023/12/20 03:56:25;;;;;;;1.67;1.20;;;;;;;;;;4928689;29;20060;-79
2023/12/20 03:58:51;;;;;;;2.65;1.42;;;;;;;;;;4929775;29;20043;-77
2023/12/20 04:01:17;;;;;;;1.10;1.00;;;;;;;;;;4916147;29;20048;-78
2023/12/20 04:03:43;;;;;;;1.20;1.10;;;;;;;;;;4947972;29;20041;-78
2023/12/20 04:06:19;;;;;;;1.40;1.13;;;;;;;;;;4915303;29;20043;-78
2023/12/20 04:08:45;;;;;;;2.17;1.30;;;;;;;;;;4947062;29;20039;-78
2023/12/20 04:11:13;;;;;;;0.98;0.80;;;;;;;;;;4946535;29;20051;-78
2023/12/20 04:13:39;;;;;;;2.70;1.00;;;;;;;;;;4929093;29;20039;-79
2023/12/20 04:16:05;;;;;;;1.25;0.85;;;;;;;;;;4930653;29;20036;-77
2023/12/20 04:18:33;;;;;;;2.20;1.35;;;;;;;;;;4945805;29;20047;-78
2023/12/20 04:20:59;;;;;;;2.70;1.27;;;;;;;;;;4929216;29;20051;-77
2023/12/20 04:23:26;;;;;;;0.93;0.80;;;;;;;;;;4929549;29;20043;-78
2023/12/20 04:25:54;;;;;;;0.95;0.85;;;;;;;;;;4945278;29;20034;-77
2023/12/20 04:28:21;;;;;;;1.08;0.98;;;;;;;;;;4916079;29;20046;-78
2023/12/20 04:30:48;;;;;;;1.13;0.90;;;;;;;;;;4947393;29;20039;-78
2023/12/20 04:33:14;;;;;;;0.73;0.70;;;;;;;;;;4929664;29;20059;-78
2023/12/20 04:35:42;;;;;;;1.95;0.93;;;;;;;;;;4914448;29;20048;-78
2023/12/20 04:41:00;;;;;;;1.17;1.00;;;;;;;;;;4944605;29;20046;-78
2023/12/20 04:43:28;;;;;;;1.00;0.90;;;;;;;;;;4931325;29;20039;-78
2023/12/20 04:45:58;;;;;;;0.68;0.68;;;;;;;;;;4932454;29;20035;-78
2023/12/20 04:48:27;;;;;;;1.35;0.90;;;;;;;;;;4910154;29;20051;-79
2023/12/20 04:50:54;;;;;;;0.85;0.80;;;;;;;;;;4948056;29;20028;-79
2023/12/20 04:53:21;;;;;;;1.20;0.98;;;;;;;;;;4933033;29;20051;-77
2023/12/20 04:55:48;;;;;;;1.00;0.80;;;;;;;;;;4915937;29;20047;-78
2023/12/20 04:58:14;;;;;;;0.70;0.70;;;;;;;;;;4930318;29;20039;-79
2023/12/20 05:00:40;;;;;;;0.88;0.77;;;;;;;;;;4947916;29;20047;-77
2023/12/20 05:03:07;;;;;;;0.90;0.70;;;;;;;;;;4949483;29;20044;-79
2023/12/20 05:05:33;;;;;;;1.17;0.70;;;;;;;;;;4948425;29;20035;-78
2023/12/20 05:07:59;;;;;;;0.68;0.57;;;;;;;;;;4932431;29;20046;-79
2023/12/20 05:10:26;;;;;;;0.90;0.70;;;;;;;;;;4949634;29;20046;-79
2023/12/20 05:12:54;;;;;;;1.48;0.75;;;;;;;;;;4932499;29;20041;-78
2023/12/20 05:15:21;;;;;;;1.08;0.82;;;;;;;;;;4949854;29;20042;-79
2023/12/20 05:17:47;;;;;;;1.35;1.02;;;;;;;;;;4948291;29;20051;-78
2023/12/20 05:20:14;;;;;;;1.75;1.08;;;;;;;;;;4945479;29;20036;-76
2023/12/20 05:22:41;;;;;;;3.92;1.98;;;;;;;;;;4927975;29;20047;-80
2023/12/20 05:25:09;;;;;;;2.10;1.20;;;;;;;;;;4944172;29;20643;-80
2023/12/20 05:27:35;;;;;;;1.10;0.98;;;;;;;;;;4927325;29;20391;-79
2023/12/20 05:30:04;;;;;;;1.10;0.80;;;;;;;;;;4943356;29;20042;-87
2023/12/20 05:32:31;;;;;;;0.82;0.70;;;;;;;;;;4945094;29;20055;-77
2023/12/20 05:34:57;;;;;;;2.05;0.70;;;;;;;;;;4931824;29;20035;-80
2023/12/20 05:37:24;;;;;;;1.50;0.80;;;;;;;;;;4946001;29;20051;-79
2023/12/20 05:39:51;;;;;;;1.10;1.00;;;;;;;;;;4947735;29;20051;-78
2023/12/20 05:42:18;;;;;;;1.00;0.90;;;;;;;;;;4928686;29;20036;-78
2023/12/20 05:44:44;;;;;;;1.50;1.10;;;;;;;;;;4931513;29;20050;-80
2023/12/20 05:47:10;;;;;;;1.15;0.75;;;;;;;;;;4946059;29;20410;-79
2023/12/20 05:49:36;;;;;;;1.48;0.85;;;;;;;;;;4931110;29;20051;-80
2023/12/20 05:52:05;;;;;;;2.30;1.05;;;;;;;;;;4945402;29;20039;-81
2023/12/20 05:54:32;;;;;;;2.17;1.10;;;;;;;;;;4946599;29;20043;-79
2023/12/20 05:57:01;;;;;;;3.05;1.58;;;;;;;;;;4928741;29;20414;-79
2023/12/20 05:59:27;;;;;;;4.35;2.13;;;;;;;;;;4944305;29;20047;-78
2023/12/20 06:01:53;;;;;;;2.65;1.23;;;;;;;;;;4947418;29;20043;-80
2023/12/20 06:04:20;;;;;;;4.18;1.25;;;;;;;;;;4943548;29;20036;-80
2023/12/20 06:06:52;;;;;;;1.38;1.02;;;;;;;;;;4945423;29;20036;-80
2023/12/20 06:09:18;;;;;;;1.55;1.23;;;;;;;;;;4904620;29;20046;-78
2023/12/20 06:11:44;;;;;;;1.42;1.25;;;;;;;;;;4902750;29;20044;-78
2023/12/20 06:14:12;;;;;;;1.20;1.10;;;;;;;;;;4936797;29;20031;-78
2023/12/20 06:16:38;;;;;;;2.13;1.05;;;;;;;;;;4918152;29;20063;-78
2023/12/20 06:19:30;;;;;;;1.42;1.10;;;;;;;;;;4905519;29;20040;-77
2023/12/20 06:22:05;;;;;;;1.75;1.20;;;;;;;;;;4951148;29;20388;-78
2023/12/20 06:24:33;;;;;;;1.38;1.27;;;;;;;;;;4937372;29;20039;-78
2023/12/20 06:26:59;;;;;;;1.50;1.15;;;;;;;;;;4919707;29;20495;-79
2023/12/20 06:29:26;;;;;;;1.98;1.30;;;;;;;;;;4935217;29;20047;-78
2023/12/20 06:31:58;;;;;;;1.77;1.40;;;;;;;;;;4933390;29;20525;-78
2023/12/20 06:34:25;;;;;;;1.50;1.30;;;;;;;;;;4919447;29;20048;-79
2023/12/20 06:36:51;;;;;;;1.50;1.30;;;;;;;;;;4900047;29;20044;-79
2023/12/20 06:39:17;;;;;;;1.60;1.33;;;;;;;;;;4929005;29;20032;-79
2023/12/20 06:41:43;;;;;;;1.40;1.20;;;;;;;;;;4933950;29;20048;-79
2023/12/20 06:44:13;;;;;;;2.47;1.63;;;;;;;;;;4903101;29;20047;-79
2023/12/20 06:46:42;;;;;;;1.98;1.45;;;;;;;;;;4935119;29;20032;-79
2023/12/20 06:49:09;;;;;;;1.95;1.10;;;;;;;;;;4932379;29;20038;-79
2023/12/20 06:51:35;;;;;;;2.08;1.50;;;;;;;;;;4918103;29;20036;-79
2023/12/20 06:54:05;;;;;;;2.03;1.50;;;;;;;;;;4936164;29;20036;-79
2023/12/20 06:56:31;;;;;;;2.05;1.60;;;;;;;;;;4934347;29;20044;-79
2023/12/20 06:58:59;;;;;;;3.17;1.92;;;;;;;;;;4919540;29;20031;-79
2023/12/20 07:01:25;;;;;;;1.60;1.40;;;;;;;;;;4919655;29;20094;-79
2023/12/20 07:03:51;;;;;;;2.58;1.63;;;;;;;;;;4918532;29;20040;-79
2023/12/20 07:06:17;;;;;;;1.30;1.10;;;;;;;;;;4919574;29;20523;-79
2023/12/20 07:08:44;;;;;;;21.77;2.25;;;;;;;;;;4933642;29;20054;-78
2023/12/20 07:11:11;;;;;;;7.45;2.22;;;;;;;;;;4919013;29;20422;-77
2023/12/20 07:13:37;;;;;;;2.67;1.60;;;;;;;;;;4940283;29;20046;-79
2023/12/20 07:16:03;;;;;;;1.98;1.50;;;;;;;;;;4918468;29;20047;-78
2023/12/20 07:18:30;;;;;;;4.22;1.30;;;;;;;;;;4932020;29;20399;-79
2023/12/20 07:20:56;;;;;;;2.83;1.50;;;;;;;;;;4938595;29;20129;-79
2023/12/20 07:23:22;;;;;;;4.18;2.30;;;;;;;;;;4922248;29;20058;-79
2023/12/20 07:25:48;;;;;;;5.55;2.70;;;;;;;;;;4922357;29;20027;-80
2023/12/20 07:28:14;;;;;;;3.13;1.27;;;;;;;;;;4922463;29;20042;-79
2023/12/20 07:30:40;;;;;;;2.67;1.63;;;;;;;;;;4922721;29;20043;-79
2023/12/20 07:33:08;;;;;;;1.58;1.15;;;;;;;;;;4921231;29;20027;-78
2023/12/20 07:35:34;;;;;;;3.55;1.00;;;;;;;;;;4920836;29;20059;-78
2023/12/20 07:38:02;;;;;;;1.50;1.20;;;;;;;;;;4926918;29;20067;-78
2023/12/20 07:40:28;;;;;;;2.17;1.40;;;;;;;;;;4903034;29;20043;-77
2023/12/20 07:42:54;;;;;;;2.28;1.40;;;;;;;;;;4921049;29;20509;-79
2023/12/20 07:45:22;;;;;;;3.20;1.35;;;;;;;;;;4916879;29;20525;-80
2023/12/20 07:47:50;;;;;;;4.00;1.85;;;;;;;;;;4923597;29;20042;-79
2023/12/20 07:50:16;;;;;;;2.70;1.45;;;;;;;;;;4917721;29;20035;-79
2023/12/20 07:52:43;;;;;;;2.78;1.65;;;;;;;;;;4921852;29;20048;-79
2023/12/20 07:55:09;;;;;;;4.78;2.08;;;;;;;;;;4928786;29;20035;-80
2023/12/20 07:57:36;;;;;;;2.53;2.03;;;;;;;;;;4940138;29;20044;-78
2023/12/20 08:00:03;;;;;;;2.88;2.08;;;;;;;;;;4939908;29;20043;-78
2023/12/20 08:02:34;;;;;;;5.40;3.25;;;;;;;;;;4902728;29;20074;-78
2023/12/20 08:05:01;;;;;;;4.80;2.42;;;;;;;;;;4902253;29;20050;-78
2023/12/20 08:07:27;;;;;;;8.95;2.80;;;;;;;;;;4935307;29;20039;-79
2023/12/20 08:09:56;;;;;;;7.03;3.08;;;;;;;;;;4904685;29;20071;-79
2023/12/20 08:12:23;;;;;;;4.80;1.55;;;;;;;;;;4938163;29;20047;-79
2023/12/20 08:14:49;;;;;;;3.85;1.92;;;;;;;;;;4939711;29;20044;-79
2023/12/20 08:17:16;;;;;;;4.22;2.50;;;;;;;;;;4938605;29;20051;-78
2023/12/20 08:19:42;;;;;;;2.90;1.80;;;;;;;;;;4922418;29;20043;-78
2023/12/20 08:22:08;;;;;;;7.05;3.28;;;;;;;;;;4938324;29;20050;-79
2023/12/20 08:24:34;;;;;;;5.80;3.00;;;;;;;;;;4940514;29;20043;-79
2023/12/20 08:27:00;;;;;;;6.45;3.15;;;;;;;;;;4917615;29;20034;-79
2023/12/20 08:29:26;;;;;;;7.07;3.45;;;;;;;;;;4938103;29;20515;-79
2023/12/20 08:31:54;;;;;;;4.78;3.00;;;;;;;;;;4934304;29;20398;-79
2023/12/20 08:34:20;;;;;;;4.13;2.38;;;;;;;;;;4921530;29;20458;-79
2023/12/20 08:36:46;;;;;;;6.30;3.38;;;;;;;;;;4921203;29;20035;-79
2023/12/20 08:39:12;;;;;;;5.13;3.20;;;;;;;;;;4937652;29;20039;-79
2023/12/20 08:41:38;;;;;;;6.38;3.03;;;;;;;;;;4935745;29;20036;-78
2023/12/20 08:44:04;;;;;;;5.22;3.42;;;;;;;;;;4916198;29;20047;-79
2023/12/20 08:46:30;;;;;;;5.45;3.13;;;;;;;;;;4919196;29;20032;-79
2023/12/20 08:48:57;;;;;;;5.75;3.33;;;;;;;;;;4904417;29;20038;-78
2023/12/20 08:51:25;;;;;;;5.63;2.60;;;;;;;;;;4936989;29;20039;-78
2023/12/20 08:53:52;;;;;;;8.50;4.13;;;;;;;;;;4936214;29;20423;-79
2023/12/20 08:56:18;;;;;;;13.20;5.65;;;;;;;;;;4935765;29;20039;-78
2023/12/20 08:58:45;;;;;;;9.55;4.80;;;;;;;;;;4918739;29;20043;-79
2023/12/20 09:01:12;;;;;;;14.57;5.50;;;;;;;;;;4933370;29;20051;-79
2023/12/20 09:03:38;;;;;;;9.20;4.35;;;;;;;;;;4907630;29;20052;-79
2023/12/20 09:06:05;;;;;;;4.72;2.70;;;;;;;;;;4916670;29;20039;-79
2023/12/20 09:08:31;;;;;;;21.25;6.50;;;;;;;;;;4935567;29;20044;-79
2023/12/20 09:10:57;;;;;;;28.25;9.43;;;;;;;;;;4933739;29;20039;-79
2023/12/20 09:13:28;;;;;;;16.83;6.15;;;;;;;;;;4902756;29;20430;-80
2023/12/20 09:15:57;;;;;;;14.63;5.30;;;;;;;;;;4905214;29;20077;-80
2023/12/20 09:18:23;;;;;;;12.55;5.93;;;;;;;;;;4910518;29;20043;-80
2023/12/20 09:20:49;;;;;;;16.55;6.38;;;;;;;;;;4936246;29;20035;-80
2023/12/20 09:23:16;;;;;;;10.70;5.05;;;;;;;;;;4938416;29;20050;-81
2023/12/20 09:25:42;;;;;;;9.70;4.47;;;;;;;;;;4922526;29;20039;-80
2023/12/20 09:28:09;;;;;;;11.40;4.30;;;;;;;;;;4934929;29;20043;-80
2023/12/20 09:30:39;;;;;;;8.73;4.25;;;;;;;;;;4903203;29;20039;-79
2023/12/20 09:33:07;;;;;;;10.75;4.57;;;;;;;;;;4935062;29;20051;-79
2023/12/20 09:35:33;;;;;;;11.13;3.97;;;;;;;;;;4932735;29;20042;-79
2023/12/20 09:37:59;;;;;;;11.50;3.88;;;;;;;;;;4931648;29;20047;-79
2023/12/20 09:40:26;;;;;;;5.65;3.38;;;;;;;;;;4934317;29;20056;-79
2023/12/20 09:43:23;;;;;;;6.80;3.38;;;;;;;;;;4918612;29;20047;-79
2023/12/20 09:45:53;;;;;;;10.57;4.40;;;;;;;;;;4932528;29;20039;-79
2023/12/20 09:48:19;;;;;;;20.63;7.68;;;;;;;;;;4934406;29;20055;-79
2023/12/20 09:50:46;;;;;;;78.97;24.55;;;;;;;;;;4918176;29;20066;-78
2023/12/20 09:53:16;;;;;;;64.85;18.38;;;;;;;;;;4937538;29;20502;-78
2023/12/20 09:55:43;;;;;;;49.30;17.88;;;;;;;;;;4918190;29;20044;-79
2023/12/20 09:58:09;;;;;;;36.90;13.57;;;;;;;;;;4919532;29;20039;-79
2023/12/20 10:00:35;;;;;;;13.20;5.50;;;;;;;;;;4918758;29;20627;-79
2023/12/20 10:03:02;;;;;;;21.05;6.30;;;;;;;;;;4918676;29;20502;-78
2023/12/20 10:05:32;;;;;;;19.77;6.53;;;;;;;;;;4909287;29;20411;-79
2023/12/20 10:08:00;;;;;;;11.25;4.97;;;;;;;;;;4930138;29;20384;-78
2023/12/20 10:10:27;;;;;;;14.00;5.30;;;;;;;;;;4919897;29;20043;-78
2023/12/20 10:13:07;;;;;;;13.15;5.13;;;;;;;;;;4934232;29;20631;-78
2023/12/20 10:15:34;;;;;;;13.98;5.53;;;;;;;;;;4934658;29;20062;-78
2023/12/20 10:18:04;;;;;;;15.50;5.80;;;;;;;;;;4933970;29;20483;-78
2023/12/20 10:20:33;;;;;;;14.55;5.30;;;;;;;;;;4933994;29;20062;-79
2023/12/20 10:23:00;;;;;;;10.40;3.25;;;;;;;;;;4903281;29;20035;-78
2023/12/20 10:25:27;;;;;;;14.63;4.25;;;;;;;;;;4918448;29;20043;-78
2023/12/20 10:28:14;;;;;;;11.05;4.57;;;;;;;;;;4938796;29;20035;-78
2023/12/20 10:30:43;;;;;;;9.25;4.32;;;;;;;;;;4945016;28;20066;-78
2023/12/20 10:33:09;;;;;;;9.18;4.15;;;;;;;;;;4920004;29;20129;-78
2023/12/20 10:35:37;;;;;;;8.63;3.92;;;;;;;;;;4923934;29;20050;-78
2023/12/20 10:38:05;;;;;;;12.77;3.70;;;;;;;;;;4928728;29;20402;-78
2023/12/20 10:40:39;;;;;;;11.07;3.58;;;;;;;;;;4932589;29;20043;-78
2023/12/20 10:43:05;;;;;;;13.10;4.07;;;;;;;;;;4914569;29;20044;-78
2023/12/20 10:45:32;;;;;;;21.77;5.35;;;;;;;;;;4933976;29;20043;-78
2023/12/20 10:48:01;;;;;;;12.57;4.18;;;;;;;;;;4930811;29;20040;-78
2023/12/20 10:50:29;;;;;;;11.15;3.88;;;;;;;;;;4936746;29;20054;-79
2023/12/20 10:52:55;;;;;;;16.48;4.82;;;;;;;;;;4932876;29;20059;-78
2023/12/20 10:55:23;;;;;;;10.43;4.07;;;;;;;;;;4935470;29;20043;-78
2023/12/20 10:57:56;;;;;;;9.95;3.67;;;;;;;;;;4901723;29;20742;-78
2023/12/20 11:00:23;;;;;;;11.05;3.13;;;;;;;;;;4932045;29;20039;-78
2023/12/20 11:02:50;;;;;;;6.00;3.08;;;;;;;;;;4934930;29;20418;-77
2023/12/20 11:05:33;;;;;;;11.80;3.28;;;;;;;;;;4919214;29;20043;-77
2023/12/20 11:08:08;;;;;;;10.23;3.50;;;;;;;;;;4930673;29;20402;-77
2023/12/20 11:10:51;;;;;;;8.18;2.92;;;;;;;;;;4919805;29;20043;-77
2023/12/20 11:13:22;;;;;;;11.65;4.60;;;;;;;;;;4916771;29;20039;-77
2023/12/20 11:15:49;;;;;;;10.70;3.45;;;;;;;;;;4915565;29;20042;-77
2023/12/20 11:18:15;;;;;;;15.02;5.65;;;;;;;;;;4920394;29;20046;-77
2023/12/20 11:20:42;;;;;;;16.00;4.82;;;;;;;;;;4937867;29;20043;-77
2023/12/20 11:23:09;;;;;;;15.85;3.92;;;;;;;;;;4907167;29;20039;-77
2023/12/20 11:25:52;;;;;;;13.73;5.05;;;;;;;;;;4935843;29;20035;-77
2023/12/20 11:28:24;;;;;;;21.73;11.23;;;;;;;;;;4939367;29;20036;-77
2023/12/20 11:30:56;;;;;;;15.32;7.57;;;;;;;;;;4934785;29;20514;-77
2023/12/20 11:33:24;;;;;;;13.00;5.70;;;;;;;;;;4924500;29;20055;-77
2023/12/20 11:35:50;;;;;;;12.25;6.05;;;;;;;;;;4923511;29;20040;-78
2023/12/20 11:38:19;;;;;;;35.45;10.40;;;;;;;;;;4933762;29;20042;-78
2023/12/20 11:40:49;;;;;;;25.75;7.55;;;;;;;;;;4933575;29;20036;-78
2023/12/20 11:43:37;;;;;;;21.77;6.57;;;;;;;;;;4936180;29;20537;-78
2023/12/20 11:46:05;;;;;;;43.00;10.95;;;;;;;;;;4945177;28;20036;-78
2023/12/20 11:48:32;;;;;;;77.15;25.80;;;;;;;;;;4934370;29;20040;-78
2023/12/20 11:50:59;;;;;;;22.90;11.77;;;;;;;;;;4915287;29;20036;-77
2023/12/20 11:53:25;;;;;;;8.23;2.92;;;;;;;;;;4917900;29;20039;-78
2023/12/20 11:55:51;;;;;;;13.20;5.95;;;;;;;;;;4918172;29;20043;-77
2023/12/20 11:58:18;;;;;;;50.10;10.70;;;;;;;;;;4933806;29;20047;-78
2023/12/20 12:00:44;;;;;;;149.82;31.13;;;;;;;;;;4913161;29;20055;-77
2023/12/20 12:03:10;;;;;;;94.00;21.38;;;;;;;;;;4933332;29;20035;-77
2023/12/20 12:05:36;;;;;;;138.50;29.52;;;;;;;;;;4935938;29;20040;-78
2023/12/20 12:08:05;;;;;;;65.25;19.45;;;;;;;;;;4919031;29;20043;-79
2023/12/20 12:10:32;;;;;;;14.80;4.97;;;;;;;;;;4921950;29;20039;-78
2023/12/20 12:13:00;;;;;;;12.18;3.30;;;;;;;;;;4941920;29;20052;-79
2023/12/20 12:15:27;;;;;;;66.78;10.80;;;;;;;;;;4938332;29;20058;-79
2023/12/20 12:17:54;;;;;;;28.95;6.35;;;;;;;;;;4908497;29;20066;-79
2023/12/20 12:20:22;;;;;;;55.22;10.98;;;;;;;;;;4917389;29;20402;-78
2023/12/20 12:23:05;;;;;;;30.15;6.70;;;;;;;;;;4937257;29;20039;-78
2023/12/20 12:25:35;;;;;;;86.82;18.48;;;;;;;;;;4921370;29;20051;-79
2023/12/20 12:28:01;;;;;;;9.00;3.53;;;;;;;;;;4920736;29;20408;-79
2023/12/20 12:30:28;;;;;;;49.72;8.88;;;;;;;;;;4937697;29;20032;-78
2023/12/20 12:32:57;;;;;;;39.40;7.25;;;;;;;;;;4935536;29;20043;-77
2023/12/20 12:35:24;;;;;;;160.07;22.60;;;;;;;;;;4934037;29;20043;-78
2023/12/20 12:37:53;;;;;;;13.82;3.58;;;;;;;;;;4905763;29;20040;-78
2023/12/20 12:40:20;;;;;;;42.53;6.85;;;;;;;;;;4933809;29;20034;-77
2023/12/20 12:42:46;;;;;;;66.25;10.93;;;;;;;;;;4934149;29;20105;-78
2023/12/20 12:45:13;;;;;;;68.00;12.38;;;;;;;;;;4919519;29;20047;-78
2023/12/20 12:47:40;;;;;;;203.88;37.38;;;;;;;;;;4919755;29;20035;-78
2023/12/20 12:50:06;;;;;;;25.08;6.63;;;;;;;;;;4912625;29;20058;-79
2023/12/20 12:52:33;;;;;;;23.48;7.07;;;;;;;;;;4937305;29;20526;-78
2023/12/20 12:55:00;;;;;;;39.50;8.05;;;;;;;;;;4935641;29;20067;-78
2023/12/20 12:57:26;;;;;;;23.35;7.22;;;;;;;;;;4904711;29;20521;-78
2023/12/20 12:59:53;;;;;;;69.00;16.90;;;;;;;;;;4935592;29;20627;-79
2023/12/20 13:02:19;;;;;;;21.33;6.50;;;;;;;;;;4933828;29;20035;-78
2023/12/20 13:04:46;;;;;;;41.85;11.52;;;;;;;;;;4921271;29;20502;-78
2023/12/20 13:07:12;;;;;;;44.70;12.05;;;;;;;;;;4925135;29;20050;-79
2023/12/20 13:09:39;;;;;;;69.85;24.48;;;;;;;;;;4922169;29;20047;-79
2023/12/20 13:12:06;;;;;;;6.53;2.45;;;;;;;;;;4918511;29;20048;-79
2023/12/20 13:14:34;;;;;;;6.78;2.40;;;;;;;;;;4936279;29;20047;-78
2023/12/20 13:17:03;;;;;;;6.82;1.92;;;;;;;;;;4937476;29;20039;-79
2023/12/20 13:19:30;;;;;;;8.45;2.13;;;;;;;;;;4917961;29;20047;-77
2023/12/20 13:21:58;;;;;;;8.75;2.20;;;;;;;;;;4937113;29;20040;-78
2023/12/20 13:24:24;;;;;;;6.95;1.88;;;;;;;;;;4935077;29;20074;-78
2023/12/20 13:26:50;;;;;;;5.35;3.15;;;;;;;;;;4919286;29;20051;-79
2023/12/20 13:29:16;;;;;;;4.88;2.03;;;;;;;;;;4917241;29;20055;-78
2023/12/20 13:31:49;;;;;;;6.35;2.15;;;;;;;;;;5064100;27;20396;-58
2023/12/20 13:34:16;;;;;;;9.45;3.15;;;;;;;;;;5053150;28;20029;-57
2023/12/20 13:36:45;;;;;;;13.07;3.95;;;;;;;;;;5051917;28;20032;-58
2023/12/20 13:39:12;;;;;;;7.03;2.03;;;;;;;;;;5052763;28;20044;-58
2023/12/20 13:41:38;;;;;;;8.52;2.63;;;;;;;;;;5049957;28;20049;-56
2023/12/20 13:44:04;;;;;;;5.53;1.80;;;;;;;;;;5048306;28;20037;-58
2023/12/20 13:46:31;;;;;;;6.00;2.05;;;;;;;;;;5048740;28;20056;-58
2023/12/20 13:48:57;;;;;;;5.03;1.70;;;;;;;;;;5047548;28;20507;-58
2023/12/20 13:51:23;;;;;;;11.68;3.28;;;;;;;;;;5054284;28;20039;-57
2023/12/20 13:53:49;;;;;;;6.07;2.30;;;;;;;;;;5046769;28;20056;-58
2023/12/20 13:56:15;;;;;;;7.63;2.50;;;;;;;;;;5050166;28;20475;-58
2023/12/20 13:58:42;;;;;;;7.75;2.45;;;;;;;;;;5049202;28;20041;-58
2023/12/20 14:01:10;;;;;;;14.85;3.38;;;;;;;;;;5051893;28;20048;-57
2023/12/20 14:03:36;;;;;;;17.55;4.45;;;;;;;;;;5053132;28;20049;-57
2023/12/20 14:06:03;;;;;;;40.72;11.32;;;;;;;;;;5053592;28;20048;-58
2023/12/20 14:08:29;;;;;;;56.40;15.35;;;;;;;;;;5051472;28;20037;-58
2023/12/20 14:10:55;;;;;;;47.88;15.45;;;;;;;;;;5052446;28;20035;-58
2023/12/20 14:13:21;;;;;;;37.13;11.13;;;;;;;;;;5051834;28;20060;-57
2023/12/20 14:15:49;;;;;;;16.98;4.20;;;;;;;;;;5054068;28;20408;-58
2023/12/20 14:18:15;;;;;;;17.80;4.22;;;;;;;;;;5052535;28;20033;-58
2023/12/20 14:20:42;;;;;;;7.82;2.60;;;;;;;;;;5053442;28;21374;-58
2023/12/20 14:23:11;;;;;;;15.57;5.80;;;;;;;;;;5052328;28;20037;-58
2023/12/20 14:25:37;;;;;;;29.70;11.13;;;;;;;;;;5048486;28;20032;-58
2023/12/20 14:28:04;;;;;;;17.15;8.40;;;;;;;;;;5047568;28;20053;-57
2023/12/20 14:30:30;;;;;;;6.88;3.00;;;;;;;;;;5047541;28;20500;-56
2023/12/20 14:32:56;;;;;;;6.18;2.25;;;;;;;;;;5048130;28;20037;-56
2023/12/20 14:35:22;;;;;;;9.45;2.42;;;;;;;;;;5048825;28;20052;-56
2023/12/20 14:37:50;;;;;;;10.32;2.80;;;;;;;;;;5049450;28;20037;-57
2023/12/20 14:40:16;;;;;;;9.32;2.05;;;;;;;;;;5050043;28;20052;-58
2023/12/20 14:42:43;;;;;;;9.07;2.55;;;;;;;;;;5039917;28;20034;-58